Time;durP1;ratioP1;P1;durP2;ratioP2;P2;SDS_P1;SDS_P2;PMS_P1;PMS_P2;Temp;Humidity;BMP_temperature;BMP_pressure;BME280_temperature;BME280_humidity;BME280_pressure;Samples;Min_cycle;Max_cycle;Signal;HPM_P1;HPM_P2
2022/01/17 00:00:36;;;;;;;0.10;0.10;;;;;;;;;;4843569;29;20105;-83
2022/01/17 00:03:02;;;;;;;0.10;0.10;;;;;;;;;;4843525;29;20049;-84
2022/01/17 00:05:28;;;;;;;0.10;0.10;;;;;;;;;;4843485;29;20049;-84
2022/01/17 00:07:54;;;;;;;0.10;0.10;;;;;;;;;;4828392;29;20042;-84
2022/01/17 00:10:20;;;;;;;0.10;0.10;;;;;;;;;;4843257;29;20691;-84
2022/01/17 00:12:47;;;;;;;0.10;0.10;;;;;;;;;;4828193;29;20140;-84
2022/01/17 00:15:20;;;;;;;0.10;0.10;;;;;;;;;;4843216;29;20422;-83
2022/01/17 00:17:50;;;;;;;0.10;0.10;;;;;;;;;;4859871;29;20049;-84
2022/01/17 00:20:26;;;;;;;0.10;0.10;;;;;;;;;;4843108;29;20053;-83
2022/01/17 00:22:52;;;;;;;0.00;0.00;;;;;;;;;;4842922;29;20548;-84
2022/01/17 00:25:19;;;;;;;0.10;0.10;;;;;;;;;;4843087;29;20057;-84
2022/01/17 00:27:44;;;;;;;0.10;0.10;;;;;;;;;;4828014;29;20042;-84
2022/01/17 00:30:11;;;;;;;2.40;2.30;;;;;;;;;;4828267;29;20052;-83
2022/01/17 00:32:36;;;;;;;0.10;0.10;;;;;;;;;;4827894;29;20052;-83
2022/01/17 00:35:03;;;;;;;0.10;0.10;;;;;;;;;;4827813;29;20406;-82
2022/01/17 00:37:29;;;;;;;0.10;0.10;;;;;;;;;;4827887;29;20457;-83
2022/01/17 00:39:55;;;;;;;0.10;0.10;;;;;;;;;;4843075;29;20041;-85
2022/01/17 00:42:22;;;;;;;1.00;0.17;;;;;;;;;;4842837;29;20094;-83
2022/01/17 00:44:48;;;;;;;0.10;0.10;;;;;;;;;;4843107;29;20406;-83
2022/01/17 00:47:14;;;;;;;0.10;0.10;;;;;;;;;;4842737;29;20554;-83
2022/01/17 00:49:42;;;;;;;0.20;0.20;;;;;;;;;;4827667;29;20042;-83
2022/01/17 00:52:08;;;;;;;0.10;0.10;;;;;;;;;;4842690;29;20094;-83
2022/01/17 00:54:34;;;;;;;0.10;0.10;;;;;;;;;;4827580;29;20049;-83
2022/01/17 00:57:00;;;;;;;0.10;0.10;;;;;;;;;;4843234;29;20049;-83
2022/01/17 00:59:26;;;;;;;0.10;0.10;;;;;;;;;;4842741;29;20053;-84
2022/01/17 01:01:52;;;;;;;0.10;0.10;;;;;;;;;;4827678;29;20057;-84
2022/01/17 01:04:18;;;;;;;0.10;0.10;;;;;;;;;;4842605;29;20073;-83
2022/01/17 01:06:44;;;;;;;0.10;0.10;;;;;;;;;;4845488;29;20494;-84
2022/01/17 01:09:10;;;;;;;0.10;0.10;;;;;;;;;;4830710;29;20128;-84
2022/01/17 01:11:36;;;;;;;0.10;0.10;;;;;;;;;;4846086;29;20051;-83
2022/01/17 01:14:02;;;;;;;0.10;0.10;;;;;;;;;;4846342;29;20408;-84
2022/01/17 01:16:34;;;;;;;0.10;0.10;;;;;;;;;;4830776;29;20056;-84
2022/01/17 01:21:46;;;;;;;0.10;0.10;;;;;;;;;;4846334;29;20081;-84
2022/01/17 01:29:48;;;;;;;0.00;0.00;;;;;;;;;;4862820;29;20049;-83
2022/01/17 01:32:18;;;;;;;0.10;0.10;;;;;;;;;;4845832;29;20041;-84
2022/01/17 01:34:48;;;;;;;0.10;0.10;;;;;;;;;;4845739;29;20065;-84
2022/01/17 01:37:14;;;;;;;0.10;0.10;;;;;;;;;;4846016;29;20101;-84
2022/01/17 01:39:40;;;;;;;0.10;0.10;;;;;;;;;;4830539;29;20529;-84
2022/01/17 01:42:16;;;;;;;0.10;0.10;;;;;;;;;;4846114;29;20401;-84
2022/01/17 01:44:42;;;;;;;0.10;0.10;;;;;;;;;;4830460;29;20398;-84
2022/01/17 01:47:08;;;;;;;0.10;0.10;;;;;;;;;;4830242;29;20146;-85
2022/01/17 01:49:34;;;;;;;0.10;0.10;;;;;;;;;;4845735;29;20081;-84
2022/01/17 01:52:00;;;;;;;0.10;0.10;;;;;;;;;;4830510;29;20370;-84
2022/01/17 01:54:26;;;;;;;0.52;0.52;;;;;;;;;;4830508;29;20051;-84
2022/01/17 01:56:52;;;;;;;0.30;0.10;;;;;;;;;;4830310;29;20489;-84
2022/01/17 01:59:20;;;;;;;0.10;0.10;;;;;;;;;;4830132;29;20570;-84
2022/01/17 02:01:46;;;;;;;0.10;0.10;;;;;;;;;;4830199;29;20133;-84
2022/01/17 02:04:13;;;;;;;0.10;0.10;;;;;;;;;;4861827;29;20060;-84
2022/01/17 02:06:39;;;;;;;0.10;0.10;;;;;;;;;;4845569;29;20105;-85
2022/01/17 02:09:05;;;;;;;0.00;0.00;;;;;;;;;;4845452;29;20396;-83
2022/01/17 02:11:32;;;;;;;0.65;0.65;;;;;;;;;;4845495;29;20053;-84
2022/01/17 02:13:58;;;;;;;0.10;0.10;;;;;;;;;;4830040;29;20056;-84
2022/01/17 02:16:24;;;;;;;0.10;0.10;;;;;;;;;;4844715;29;20049;-84
2022/01/17 02:18:50;;;;;;;0.10;0.10;;;;;;;;;;4829836;29;20046;-84
2022/01/17 02:23:42;;;;;;;0.10;0.10;;;;;;;;;;4845052;29;20053;-83
2022/01/17 02:26:08;;;;;;;0.10;0.10;;;;;;;;;;4844834;29;20045;-83
2022/01/17 02:28:36;;;;;;;0.10;0.10;;;;;;;;;;4829897;29;20132;-83
2022/01/17 02:31:02;;;;;;;0.10;0.10;;;;;;;;;;4844802;29;20480;-83
2022/01/17 02:33:28;;;;;;;0.10;0.10;;;;;;;;;;4844456;29;20059;-83
2022/01/17 02:35:54;;;;;;;0.10;0.10;;;;;;;;;;4844766;29;20136;-83
2022/01/17 02:38:20;;;;;;;0.10;0.10;;;;;;;;;;4844721;29;20185;-83
2022/01/17 02:40:46;;;;;;;0.10;0.10;;;;;;;;;;4829516;29;20412;-83
2022/01/17 02:43:13;;;;;;;0.30;0.17;;;;;;;;;;4844557;29;20057;-84
2022/01/17 02:48:18;;;;;;;0.10;0.10;;;;;;;;;;4844496;29;20059;-84
2022/01/17 02:50:44;;;;;;;0.10;0.10;;;;;;;;;;4829359;29;20128;-84
2022/01/17 02:53:10;;;;;;;0.10;0.10;;;;;;;;;;4829306;29;20080;-84
2022/01/17 02:55:36;;;;;;;0.10;0.10;;;;;;;;;;4829639;29;20064;-84
2022/01/17 02:58:02;;;;;;;0.10;0.10;;;;;;;;;;4844548;29;20117;-84
2022/01/17 03:00:28;;;;;;;0.10;0.10;;;;;;;;;;4844299;29;20498;-83
2022/01/17 03:02:54;;;;;;;0.10;0.10;;;;;;;;;;4844512;29;20382;-84
2022/01/17 03:05:20;;;;;;;0.10;0.10;;;;;;;;;;4828959;29;20111;-83
2022/01/17 03:07:46;;;;;;;0.10;0.10;;;;;;;;;;4829102;29;20494;-83
2022/01/17 03:10:27;;;;;;;0.10;0.10;;;;;;;;;;4829119;29;20482;-84
2022/01/17 03:12:53;;;;;;;0.03;0.03;;;;;;;;;;4829221;29;20344;-83
2022/01/17 03:15:21;;;;;;;0.10;0.10;;;;;;;;;;4844071;29;20060;-83
2022/01/17 03:17:47;;;;;;;0.10;0.10;;;;;;;;;;4828990;29;20193;-84
2022/01/17 03:20:13;;;;;;;0.10;0.10;;;;;;;;;;4828907;29;20064;-83
2022/01/17 03:22:39;;;;;;;0.10;0.10;;;;;;;;;;4829013;29;20459;-83
2022/01/17 03:25:06;;;;;;;0.10;0.10;;;;;;;;;;4828685;29;20042;-84
2022/01/17 03:27:32;;;;;;;0.10;0.10;;;;;;;;;;4828345;29;20344;-84
2022/01/17 03:29:57;;;;;;;0.10;0.10;;;;;;;;;;4843719;29;20042;-84
2022/01/17 03:32:23;;;;;;;0.10;0.10;;;;;;;;;;4843660;29;20053;-83
2022/01/17 03:34:49;;;;;;;0.10;0.10;;;;;;;;;;4843817;29;20057;-83
2022/01/17 03:37:15;;;;;;;0.45;0.17;;;;;;;;;;4828574;29;20072;-84
2022/01/17 03:39:41;;;;;;;0.10;0.10;;;;;;;;;;4828898;29;20482;-84
2022/01/17 03:42:07;;;;;;;0.00;0.00;;;;;;;;;;4828589;29;20081;-84
2022/01/17 03:44:33;;;;;;;0.10;0.10;;;;;;;;;;4828498;29;20504;-83
2022/01/17 03:46:59;;;;;;;2.40;0.40;;;;;;;;;;4828712;29;20046;-84
2022/01/17 03:49:25;;;;;;;0.03;0.03;;;;;;;;;;4843827;29;20057;-84
2022/01/17 03:51:51;;;;;;;0.10;0.10;;;;;;;;;;4828798;29;20137;-84
2022/01/17 03:54:17;;;;;;;0.10;0.10;;;;;;;;;;4843456;29;20056;-83
2022/01/17 03:56:43;;;;;;;0.10;0.10;;;;;;;;;;4828556;29;20046;-84
2022/01/17 03:59:09;;;;;;;0.10;0.10;;;;;;;;;;4828549;29;20049;-83
2022/01/17 04:01:35;;;;;;;0.10;0.10;;;;;;;;;;4843511;29;20061;-84
2022/01/17 04:04:01;;;;;;;0.10;0.10;;;;;;;;;;4843234;29;20046;-83
2022/01/17 04:06:27;;;;;;;0.10;0.10;;;;;;;;;;4843243;29;20052;-83
2022/01/17 04:08:53;;;;;;;0.10;0.10;;;;;;;;;;4843324;29;20486;-83
2022/01/17 04:11:19;;;;;;;0.10;0.10;;;;;;;;;;4843108;29;20048;-83
2022/01/17 04:13:46;;;;;;;0.10;0.10;;;;;;;;;;4859532;29;20105;-84
2022/01/17 04:16:12;;;;;;;0.10;0.10;;;;;;;;;;4843345;29;20045;-84
2022/01/17 04:18:39;;;;;;;0.00;0.00;;;;;;;;;;4843090;29;20057;-84
2022/01/17 04:21:04;;;;;;;0.10;0.10;;;;;;;;;;4842930;29;20191;-83
2022/01/17 04:23:30;;;;;;;0.10;0.10;;;;;;;;;;4842681;29;20053;-84
2022/01/17 04:25:56;;;;;;;0.00;0.00;;;;;;;;;;4827709;29;20501;-83
2022/01/17 04:28:22;;;;;;;0.10;0.10;;;;;;;;;;4827782;29;20046;-83
2022/01/17 04:30:48;;;;;;;0.10;0.10;;;;;;;;;;4843158;29;20045;-83
2022/01/17 04:33:14;;;;;;;0.10;0.10;;;;;;;;;;4827982;29;20037;-83
2022/01/17 04:35:40;;;;;;;0.10;0.10;;;;;;;;;;4842901;29;20064;-83
2022/01/17 04:38:07;;;;;;;0.10;0.10;;;;;;;;;;4827678;29;20045;-83
2022/01/17 04:40:38;;;;;;;0.10;0.10;;;;;;;;;;4830190;29;20108;-83
2022/01/17 04:43:06;;;;;;;0.10;0.10;;;;;;;;;;4846730;29;20461;-84
2022/01/17 04:45:32;;;;;;;0.43;0.43;;;;;;;;;;4846729;29;20437;-83
2022/01/17 04:47:58;;;;;;;0.10;0.10;;;;;;;;;;4846828;29;20156;-83
2022/01/17 04:50:25;;;;;;;0.10;0.10;;;;;;;;;;4846555;29;20509;-83
2022/01/17 04:52:52;;;;;;;0.10;0.10;;;;;;;;;;4846629;29;20060;-84
2022/01/17 04:55:18;;;;;;;0.10;0.10;;;;;;;;;;4846390;29;20064;-84
2022/01/17 04:57:44;;;;;;;0.10;0.10;;;;;;;;;;4831401;29;20406;-84
2022/01/17 05:00:11;;;;;;;0.00;0.00;;;;;;;;;;4846486;29;20450;-84
2022/01/17 05:02:37;;;;;;;0.00;0.00;;;;;;;;;;4831330;29;20270;-84
2022/01/17 05:05:04;;;;;;;0.10;0.10;;;;;;;;;;4831163;29;20140;-83
2022/01/17 05:07:31;;;;;;;5.72;0.63;;;;;;;;;;4846253;29;20120;-83
2022/01/17 05:09:57;;;;;;;0.10;0.10;;;;;;;;;;4846652;29;20045;-84
2022/01/17 05:12:23;;;;;;;0.52;0.17;;;;;;;;;;4831179;29;20038;-85
2022/01/17 05:14:51;;;;;;;0.10;0.10;;;;;;;;;;4846149;29;20104;-84
2022/01/17 05:19:58;;;;;;;0.10;0.10;;;;;;;;;;4846137;29;20133;-84
2022/01/17 05:22:25;;;;;;;1.67;0.43;;;;;;;;;;4831068;29;20156;-84
2022/01/17 05:24:51;;;;;;;0.10;0.10;;;;;;;;;;4845828;29;20498;-84
2022/01/17 05:27:17;;;;;;;0.10;0.10;;;;;;;;;;4846454;29;20053;-84
2022/01/17 05:29:43;;;;;;;0.00;0.00;;;;;;;;;;4830800;29;20566;-85
2022/01/17 05:32:09;;;;;;;0.20;0.20;;;;;;;;;;4846098;29;20128;-84
2022/01/17 05:34:40;;;;;;;0.00;0.00;;;;;;;;;;4845787;29;20490;-84
2022/01/17 05:37:06;;;;;;;0.25;0.25;;;;;;;;;;4845814;29;20057;-85
2022/01/17 05:39:32;;;;;;;0.10;0.10;;;;;;;;;;4845833;29;20129;-84
2022/01/17 05:41:58;;;;;;;1.38;0.40;;;;;;;;;;4845763;29;20086;-84
2022/01/17 05:44:24;;;;;;;0.10;0.10;;;;;;;;;;4845732;29;20087;-84
2022/01/17 05:46:50;;;;;;;0.10;0.10;;;;;;;;;;4846032;29;20048;-83
2022/01/17 05:49:16;;;;;;;0.10;0.10;;;;;;;;;;4845731;29;20041;-84
2022/01/17 05:51:42;;;;;;;0.10;0.10;;;;;;;;;;4844810;29;20478;-84
2022/01/17 05:54:08;;;;;;;0.10;0.10;;;;;;;;;;4845579;29;20053;-84
2022/01/17 05:56:34;;;;;;;0.10;0.10;;;;;;;;;;4862343;29;20044;-84
2022/01/17 05:59:00;;;;;;;0.10;0.10;;;;;;;;;;4830108;29;20136;-84
2022/01/17 06:01:26;;;;;;;0.10;0.10;;;;;;;;;;4830205;29;20046;-84
2022/01/17 06:03:52;;;;;;;0.10;0.10;;;;;;;;;;4830016;29;20045;-84
2022/01/17 06:06:18;;;;;;;0.10;0.10;;;;;;;;;;4845470;29;20085;-84
2022/01/17 06:08:44;;;;;;;0.10;0.10;;;;;;;;;;4845315;29;20073;-84
2022/01/17 06:11:10;;;;;;;0.10;0.10;;;;;;;;;;4830324;29;20038;-84
2022/01/17 06:13:36;;;;;;;0.10;0.10;;;;;;;;;;4829833;29;20356;-85
2022/01/17 06:16:02;;;;;;;0.10;0.10;;;;;;;;;;4845185;29;20049;-86
2022/01/17 06:18:28;;;;;;;0.10;0.10;;;;;;;;;;4839865;29;20053;-84
2022/01/17 06:20:54;;;;;;;0.10;0.10;;;;;;;;;;4826867;29;20128;-85
2022/01/17 06:23:21;;;;;;;0.10;0.10;;;;;;;;;;4826274;29;20073;-85
2022/01/17 06:25:47;;;;;;;0.05;0.05;;;;;;;;;;4829159;29;20050;-85
2022/01/17 06:28:13;;;;;;;0.10;0.10;;;;;;;;;;4829641;29;20042;-85
2022/01/17 06:30:39;;;;;;;0.45;0.38;;;;;;;;;;4829602;29;20105;-85
2022/01/17 06:33:05;;;;;;;0.20;0.20;;;;;;;;;;4844605;29;20041;-84
2022/01/17 06:35:31;;;;;;;0.10;0.10;;;;;;;;;;4830767;29;20145;-85
2022/01/17 06:37:57;;;;;;;0.10;0.10;;;;;;;;;;4826698;29;20050;-84
2022/01/17 06:40:23;;;;;;;1.95;0.85;;;;;;;;;;4811463;29;20082;-84
2022/01/17 06:42:50;;;;;;;0.52;0.30;;;;;;;;;;4838131;29;20376;-84
2022/01/17 06:45:18;;;;;;;0.65;0.65;;;;;;;;;;4844766;29;20049;-83
2022/01/17 06:47:44;;;;;;;0.10;0.10;;;;;;;;;;4829114;29;20407;-86
2022/01/17 06:50:10;;;;;;;0.10;0.10;;;;;;;;;;4829524;29;20120;-85
2022/01/17 06:52:38;;;;;;;0.10;0.10;;;;;;;;;;4843973;29;20049;-84
2022/01/17 06:55:05;;;;;;;0.98;0.22;;;;;;;;;;4829074;29;20049;-85
2022/01/17 06:57:31;;;;;;;0.65;0.10;;;;;;;;;;4829424;29;20049;-85
2022/01/17 06:59:57;;;;;;;0.10;0.10;;;;;;;;;;4844065;29;20542;-84
2022/01/17 07:02:23;;;;;;;0.25;0.10;;;;;;;;;;4829120;29;20124;-83
2022/01/17 07:04:49;;;;;;;1.33;1.30;;;;;;;;;;4828953;29;20041;-83
2022/01/17 07:07:16;;;;;;;0.10;0.10;;;;;;;;;;4844144;29;20042;-83
2022/01/17 07:09:42;;;;;;;0.10;0.10;;;;;;;;;;4844592;29;20380;-84
2022/01/17 07:12:08;;;;;;;0.10;0.10;;;;;;;;;;4844128;29;20189;-84
2022/01/17 07:14:41;;;;;;;0.10;0.10;;;;;;;;;;4829279;29;20363;-87
2022/01/17 07:17:07;;;;;;;0.10;0.10;;;;;;;;;;4829382;29;20097;-91
2022/01/17 07:19:33;;;;;;;0.10;0.10;;;;;;;;;;4829214;29;20410;-88
2022/01/17 07:21:59;;;;;;;0.10;0.10;;;;;;;;;;4829077;29;20045;-87
2022/01/17 07:24:25;;;;;;;0.20;0.20;;;;;;;;;;4828954;29;20046;-86
2022/01/17 07:26:51;;;;;;;0.10;0.10;;;;;;;;;;4815650;29;20061;-87
2022/01/17 07:29:17;;;;;;;0.10;0.10;;;;;;;;;;4833459;29;20055;-86
2022/01/17 07:31:43;;;;;;;0.10;0.10;;;;;;;;;;4844197;29;20609;-87
2022/01/17 07:34:09;;;;;;;0.10;0.10;;;;;;;;;;4843463;29;20540;-87
2022/01/17 07:36:35;;;;;;;0.10;0.10;;;;;;;;;;4828763;29;20100;-86
2022/01/17 07:39:01;;;;;;;0.20;0.20;;;;;;;;;;4828848;29;20037;-86
2022/01/17 07:41:27;;;;;;;0.10;0.10;;;;;;;;;;4828835;29;20048;-86
2022/01/17 07:43:53;;;;;;;0.10;0.10;;;;;;;;;;4828640;29;20097;-89
2022/01/17 07:46:35;;;;;;;0.10;0.10;;;;;;;;;;4843911;29;20495;-88
2022/01/17 07:49:16;;;;;;;0.10;0.10;;;;;;;;;;4828347;29;20379;-86
2022/01/17 07:51:43;;;;;;;0.10;0.10;;;;;;;;;;4828410;29;20048;-86
2022/01/17 07:54:10;;;;;;;1.55;0.47;;;;;;;;;;4828805;29;20056;-87
2022/01/17 07:56:36;;;;;;;0.10;0.10;;;;;;;;;;4828323;29;20391;-88
2022/01/17 07:59:02;;;;;;;0.10;0.10;;;;;;;;;;4828374;29;20125;-87
2022/01/17 08:01:28;;;;;;;0.10;0.10;;;;;;;;;;4843388;29;20052;-87
2022/01/17 08:03:54;;;;;;;0.10;0.10;;;;;;;;;;4828543;29;20490;-86
2022/01/17 08:06:20;;;;;;;0.10;0.10;;;;;;;;;;4828187;29;20105;-87
2022/01/17 08:08:47;;;;;;;0.10;0.10;;;;;;;;;;4843407;29;20105;-88
2022/01/17 08:11:13;;;;;;;0.10;0.10;;;;;;;;;;4828459;29;20439;-87
2022/01/17 08:13:39;;;;;;;0.20;0.20;;;;;;;;;;4828197;29;20041;-87
2022/01/17 08:16:06;;;;;;;0.05;0.05;;;;;;;;;;4810143;29;20073;-87
2022/01/17 08:18:32;;;;;;;0.10;0.10;;;;;;;;;;4809681;29;20053;-90
2022/01/17 08:20:58;;;;;;;0.10;0.10;;;;;;;;;;4809866;29;20053;-86
2022/01/17 08:23:24;;;;;;;0.10;0.10;;;;;;;;;;4824985;29;20091;-88
2022/01/17 08:25:50;;;;;;;0.10;0.10;;;;;;;;;;4825234;29;20046;-90
2022/01/17 08:28:16;;;;;;;0.10;0.10;;;;;;;;;;4824976;29;20125;-89
2022/01/17 08:30:42;;;;;;;2.60;0.20;;;;;;;;;;4825026;29;20549;-88
2022/01/17 08:33:08;;;;;;;0.10;0.10;;;;;;;;;;4824872;29;20132;-88
2022/01/17 08:35:34;;;;;;;0.10;0.10;;;;;;;;;;4809600;29;20054;-88
2022/01/17 08:38:00;;;;;;;0.10;0.10;;;;;;;;;;4809866;29;20050;-89
2022/01/17 08:40:26;;;;;;;0.10;0.10;;;;;;;;;;4824825;29;20495;-89
2022/01/17 08:42:52;;;;;;;0.10;0.10;;;;;;;;;;4809699;29;20517;-88
2022/01/17 08:45:19;;;;;;;0.10;0.10;;;;;;;;;;4809687;29;20046;-88
2022/01/17 08:47:49;;;;;;;0.10;0.10;;;;;;;;;;4824798;29;20482;-89
2022/01/17 08:50:16;;;;;;;0.10;0.10;;;;;;;;;;4824761;29;20597;-87
2022/01/17 08:52:45;;;;;;;0.10;0.10;;;;;;;;;;4824290;29;20048;-87
2022/01/17 08:55:11;;;;;;;0.30;0.30;;;;;;;;;;4824301;29;20046;-85
2022/01/17 08:57:37;;;;;;;0.10;0.10;;;;;;;;;;4824760;29;20046;-86
2022/01/17 09:00:07;;;;;;;0.10;0.10;;;;;;;;;;4824845;29;20053;-84
2022/01/17 09:02:34;;;;;;;0.10;0.10;;;;;;;;;;4809334;29;20050;-86
2022/01/17 09:05:00;;;;;;;0.10;0.10;;;;;;;;;;4809068;29;20510;-88
2022/01/17 09:07:26;;;;;;;1.85;0.40;;;;;;;;;;4824393;29;20049;-87
2022/01/17 09:09:52;;;;;;;0.10;0.10;;;;;;;;;;4809286;29;20041;-88
2022/01/17 09:12:17;;;;;;;0.10;0.10;;;;;;;;;;4809317;29;20056;-87
2022/01/17 09:14:43;;;;;;;0.10;0.10;;;;;;;;;;4809244;29;20387;-86
2022/01/17 09:17:10;;;;;;;0.10;0.10;;;;;;;;;;4824492;29;20054;-86
2022/01/17 09:19:40;;;;;;;0.10;0.10;;;;;;;;;;4824211;29;20206;-86
2022/01/17 09:22:07;;;;;;;0.10;0.10;;;;;;;;;;4809064;29;20498;-85
2022/01/17 09:24:33;;;;;;;0.10;0.10;;;;;;;;;;4824204;29;20129;-86
2022/01/17 09:26:59;;;;;;;0.10;0.10;;;;;;;;;;4825674;29;20132;-86
2022/01/17 09:29:25;;;;;;;0.10;0.10;;;;;;;;;;4812602;29;20050;-83
2022/01/17 09:31:51;;;;;;;0.40;0.40;;;;;;;;;;4827474;29;20038;-83
2022/01/17 09:34:17;;;;;;;0.10;0.10;;;;;;;;;;4827456;29;20050;-84
2022/01/17 09:36:43;;;;;;;0.10;0.10;;;;;;;;;;4827382;29;20050;-85
2022/01/17 09:39:09;;;;;;;0.40;0.40;;;;;;;;;;4813128;29;20046;-83
2022/01/17 09:41:35;;;;;;;0.10;0.10;;;;;;;;;;4827004;29;20038;-83
2022/01/17 09:44:02;;;;;;;0.10;0.10;;;;;;;;;;4812311;29;20462;-84
2022/01/17 09:46:34;;;;;;;0.10;0.10;;;;;;;;;;4827020;29;20391;-83
2022/01/17 09:49:12;;;;;;;0.17;0.17;;;;;;;;;;4827349;29;20045;-85
2022/01/17 09:52:02;;;;;;;1.98;1.25;;;;;;;;;;4812118;29;20290;-85
2022/01/17 09:54:27;;;;;;;2.47;0.38;;;;;;;;;;4826920;29;20134;-84
2022/01/17 09:56:53;;;;;;;0.20;0.20;;;;;;;;;;4812611;29;20174;-85
2022/01/17 09:59:20;;;;;;;0.10;0.10;;;;;;;;;;4812520;29;20073;-85
2022/01/17 10:01:46;;;;;;;0.10;0.10;;;;;;;;;;4827061;29;20082;-86
2022/01/17 10:04:12;;;;;;;0.32;0.30;;;;;;;;;;4843805;29;20049;-86
2022/01/17 10:06:39;;;;;;;1.20;0.98;;;;;;;;;;4812153;29;20070;-88
2022/01/17 10:09:21;;;;;;;0.90;0.50;;;;;;;;;;4827038;29;20101;-86
2022/01/17 10:12:06;;;;;;;0.10;0.10;;;;;;;;;;4826821;29;20087;-86
2022/01/17 10:14:36;;;;;;;0.45;0.20;;;;;;;;;;4827454;29;20411;-86
2022/01/17 10:17:04;;;;;;;0.15;0.15;;;;;;;;;;4811945;29;20056;-86
2022/01/17 10:19:30;;;;;;;0.10;0.10;;;;;;;;;;4810745;29;20115;-85
2022/01/17 10:21:58;;;;;;;0.10;0.10;;;;;;;;;;4811052;29;20186;-84
2022/01/17 10:34:56;;;;;;;0.20;0.20;;;;;;;;;;4829204;29;20295;-84
2022/01/17 10:37:26;;;;;;;0.10;0.10;;;;;;;;;;4826209;29;20049;-84
2022/01/17 10:39:57;;;;;;;0.15;0.15;;;;;;;;;;4826460;29;20109;-84
2022/01/17 10:42:27;;;;;;;1.08;1.08;;;;;;;;;;4826319;29;20506;-84
2022/01/17 10:44:53;;;;;;;1.55;0.40;;;;;;;;;;4826494;29;20056;-84
2022/01/17 10:47:26;;;;;;;0.35;0.35;;;;;;;;;;4826274;29;20050;-85
2022/01/17 10:49:52;;;;;;;1.55;0.20;;;;;;;;;;4826605;29;20045;-84
2022/01/17 10:52:29;;;;;;;0.10;0.10;;;;;;;;;;4826149;29;20061;-84
2022/01/17 10:54:58;;;;;;;2.15;0.50;;;;;;;;;;4826289;29;20471;-84
2022/01/17 10:57:24;;;;;;;0.43;0.43;;;;;;;;;;4826372;29;20050;-84
2022/01/17 10:59:51;;;;;;;0.20;0.20;;;;;;;;;;4826361;29;20499;-85
2022/01/17 11:02:17;;;;;;;0.30;0.30;;;;;;;;;;4825923;29;20080;-85
2022/01/17 11:04:43;;;;;;;0.57;0.55;;;;;;;;;;4825897;29;20046;-85
2022/01/17 11:07:09;;;;;;;0.32;0.32;;;;;;;;;;4810996;29;20038;-84
2022/01/17 11:09:39;;;;;;;0.10;0.10;;;;;;;;;;4825952;29;20547;-84
2022/01/17 11:12:09;;;;;;;0.43;0.20;;;;;;;;;;4826168;29;20336;-84
2022/01/17 11:14:41;;;;;;;0.17;0.17;;;;;;;;;;4811179;29;20045;-84
2022/01/17 11:17:14;;;;;;;1.45;1.40;;;;;;;;;;4826297;29;20125;-84
2022/01/17 11:22:25;;;;;;;3.65;0.30;;;;;;;;;;4813093;29;20421;-85
2022/01/17 11:24:51;;;;;;;0.52;0.52;;;;;;;;;;4825852;29;20128;-85
2022/01/17 11:27:17;;;;;;;10.00;1.05;;;;;;;;;;4810645;29;20067;-84
2022/01/17 11:29:43;;;;;;;0.47;0.47;;;;;;;;;;4810616;29;20042;-84
2022/01/17 11:32:09;;;;;;;0.10;0.10;;;;;;;;;;4810443;29;20061;-84
2022/01/17 11:34:35;;;;;;;0.82;0.20;;;;;;;;;;4825459;29;20054;-84
2022/01/17 11:37:00;;;;;;;0.43;0.43;;;;;;;;;;4825603;29;20072;-84
2022/01/17 11:39:26;;;;;;;0.10;0.10;;;;;;;;;;4826058;29;20045;-84
2022/01/17 11:41:52;;;;;;;0.10;0.10;;;;;;;;;;4825707;29;20050;-85
2022/01/17 11:44:25;;;;;;;0.10;0.10;;;;;;;;;;4810272;29;20046;-84
2022/01/17 11:46:53;;;;;;;0.30;0.30;;;;;;;;;;4810524;29;20170;-85
2022/01/17 11:49:31;;;;;;;0.10;0.10;;;;;;;;;;4809665;29;20042;-84
2022/01/17 11:51:57;;;;;;;0.10;0.10;;;;;;;;;;4825599;29;20049;-84
2022/01/17 11:54:23;;;;;;;0.10;0.10;;;;;;;;;;4825548;29;20034;-84
2022/01/17 11:56:52;;;;;;;0.10;0.10;;;;;;;;;;4825318;29;20094;-87
2022/01/17 11:59:37;;;;;;;0.10;0.10;;;;;;;;;;4825007;29;20095;-87
2022/01/17 12:02:22;;;;;;;0.45;0.45;;;;;;;;;;4843382;29;20133;-87
2022/01/17 12:05:07;;;;;;;0.35;0.35;;;;;;;;;;4843179;29;20140;-86
2022/01/17 12:07:37;;;;;;;0.10;0.10;;;;;;;;;;4829298;29;20512;-87
2022/01/17 12:10:07;;;;;;;3.42;0.20;;;;;;;;;;4843408;29;20122;-87
2022/01/17 12:12:33;;;;;;;0.30;0.30;;;;;;;;;;4843106;29;20128;-87
2022/01/17 12:15:05;;;;;;;0.13;0.13;;;;;;;;;;4828956;29;20132;-90
2022/01/17 12:17:31;;;;;;;0.17;0.17;;;;;;;;;;4828477;29;20144;-89
2022/01/17 12:20:04;;;;;;;3.25;0.95;;;;;;;;;;4843342;29;20116;-89
2022/01/17 12:22:39;;;;;;;0.10;0.10;;;;;;;;;;4843934;29;20503;-88
2022/01/17 12:25:20;;;;;;;0.52;0.52;;;;;;;;;;4843278;29;20170;-88
2022/01/17 12:27:46;;;;;;;0.10;0.10;;;;;;;;;;4843236;29;20490;-90
2022/01/17 12:30:12;;;;;;;0.10;0.10;;;;;;;;;;4828096;29;20060;-87
2022/01/17 12:32:39;;;;;;;0.40;0.40;;;;;;;;;;4843055;29;20053;-86
2022/01/17 12:35:05;;;;;;;0.65;0.65;;;;;;;;;;4827795;29;20136;-86
2022/01/17 12:37:40;;;;;;;5.00;0.70;;;;;;;;;;4843155;29;20103;-86
2022/01/17 12:40:08;;;;;;;0.20;0.20;;;;;;;;;;4843197;29;20077;-86
2022/01/17 12:42:47;;;;;;;0.10;0.10;;;;;;;;;;4827734;29;20088;-85
2022/01/17 12:45:13;;;;;;;0.10;0.10;;;;;;;;;;4842916;29;20055;-86
2022/01/17 12:47:42;;;;;;;1.65;0.75;;;;;;;;;;4828016;29;20042;-86
2022/01/17 12:50:09;;;;;;;0.10;0.10;;;;;;;;;;4827413;29;20048;-86
2022/01/17 12:52:35;;;;;;;0.25;0.25;;;;;;;;;;4842666;29;20490;-85
2022/01/17 12:55:03;;;;;;;0.10;0.10;;;;;;;;;;4828038;29;20409;-86
2022/01/17 12:57:29;;;;;;;1.27;0.17;;;;;;;;;;4827941;29;20072;-86
2022/01/17 12:59:55;;;;;;;11.40;0.68;;;;;;;;;;4842833;29;20041;-86
2022/01/17 13:02:21;;;;;;;0.10;0.10;;;;;;;;;;4846563;29;20459;-87
2022/01/17 13:04:49;;;;;;;2.00;0.28;;;;;;;;;;4846363;29;20049;-89
2022/01/17 13:07:15;;;;;;;0.20;0.10;;;;;;;;;;4846677;29;20553;-85
2022/01/17 13:09:41;;;;;;;0.10;0.10;;;;;;;;;;4831122;29;20194;-85
2022/01/17 13:12:09;;;;;;;0.10;0.10;;;;;;;;;;4831153;29;20072;-87
2022/01/17 13:14:35;;;;;;;1.30;1.27;;;;;;;;;;4831498;29;20033;-84
2022/01/17 13:17:01;;;;;;;0.20;0.20;;;;;;;;;;4846460;29;20049;-85
2022/01/17 13:19:27;;;;;;;0.10;0.10;;;;;;;;;;4831111;29;20129;-84
2022/01/17 13:21:53;;;;;;;0.10;0.10;;;;;;;;;;4846220;29;20117;-85
2022/01/17 13:25:02;;;;;;;0.40;0.40;;;;;;;;;;4830990;29;20125;-85
2022/01/17 13:27:13;;;;;;;3.10;0.85;;;;;;;;;;4832421;29;20053;-84
2022/01/17 13:29:39;;;;;;;0.20;0.20;;;;;;;;;;4830742;29;20053;-85
2022/01/17 13:32:05;;;;;;;0.10;0.10;;;;;;;;;;4830902;29;20519;-83
2022/01/17 13:34:31;;;;;;;0.30;0.30;;;;;;;;;;4846046;29;20065;-84
2022/01/17 13:37:01;;;;;;;0.55;0.55;;;;;;;;;;4846241;29;20041;-84
2022/01/17 13:39:28;;;;;;;0.10;0.10;;;;;;;;;;4830700;29;20073;-84
2022/01/17 13:41:55;;;;;;;0.38;0.38;;;;;;;;;;4830956;29;20472;-84
2022/01/17 13:44:22;;;;;;;0.20;0.20;;;;;;;;;;4845712;29;20069;-84
2022/01/17 13:46:54;;;;;;;0.75;0.20;;;;;;;;;;4830707;29;20045;-84
2022/01/17 13:49:20;;;;;;;3.40;0.65;;;;;;;;;;4830670;29;20045;-85
2022/01/17 13:51:46;;;;;;;1.45;0.82;;;;;;;;;;4830618;29;20049;-84
2022/01/17 13:54:22;;;;;;;0.38;0.38;;;;;;;;;;4830558;29;20049;-84
2022/01/17 13:56:48;;;;;;;1.10;1.00;;;;;;;;;;4830657;29;20053;-84
2022/01/17 13:59:16;;;;;;;0.45;0.15;;;;;;;;;;4831026;29;20049;-84
2022/01/17 14:01:42;;;;;;;0.10;0.10;;;;;;;;;;4830540;29;20060;-84
2022/01/17 14:04:18;;;;;;;0.20;0.20;;;;;;;;;;4846008;29;20061;-84
2022/01/17 14:06:44;;;;;;;0.20;0.20;;;;;;;;;;4833917;29;20077;-84
2022/01/17 14:09:10;;;;;;;0.10;0.10;;;;;;;;;;4848152;29;20046;-84
2022/01/17 14:11:40;;;;;;;1.42;1.33;;;;;;;;;;4829911;29;20101;-84
2022/01/17 14:14:07;;;;;;;3.50;1.85;;;;;;;;;;4845274;29;20077;-83
2022/01/17 14:16:33;;;;;;;0.10;0.10;;;;;;;;;;4830300;29;20053;-85
2022/01/17 14:19:09;;;;;;;4.95;0.85;;;;;;;;;;4845416;29;20055;-84
2022/01/17 14:21:44;;;;;;;0.45;0.45;;;;;;;;;;4830419;29;20056;-84
2022/01/17 14:24:10;;;;;;;0.10;0.10;;;;;;;;;;4845750;29;20045;-84
2022/01/17 14:26:36;;;;;;;0.10;0.10;;;;;;;;;;4845455;29;20053;-84
2022/01/17 14:29:02;;;;;;;0.10;0.10;;;;;;;;;;4845435;29;20097;-84
2022/01/17 14:31:32;;;;;;;0.35;0.35;;;;;;;;;;4830434;29;20538;-84
2022/01/17 14:34:13;;;;;;;0.28;0.28;;;;;;;;;;4829751;29;20277;-84
2022/01/17 14:36:40;;;;;;;0.10;0.10;;;;;;;;;;4845363;29;20056;-84
2022/01/17 14:39:06;;;;;;;0.30;0.30;;;;;;;;;;4845102;29;20045;-84
2022/01/17 14:41:37;;;;;;;0.10;0.10;;;;;;;;;;4844831;29;20110;-84
2022/01/17 14:44:06;;;;;;;0.10;0.10;;;;;;;;;;4845169;29;20048;-84
2022/01/17 14:46:32;;;;;;;0.10;0.10;;;;;;;;;;4844759;29;20053;-84
2022/01/17 14:48:58;;;;;;;2.08;0.20;;;;;;;;;;4844948;29;20056;-84
2022/01/17 14:51:31;;;;;;;0.10;0.10;;;;;;;;;;4829861;29;20401;-83
2022/01/17 14:54:00;;;;;;;;;;;;;;;;;;4845127;29;20136;-84
2022/01/17 15:02:17;;;;;;;0.10;0.10;;;;;;;;;;4844834;29;20398;-84
2022/01/17 15:04:39;;;;;;;0.30;0.30;;;;;;;;;;4844280;29;20152;-84
2022/01/17 15:07:05;;;;;;;0.17;0.17;;;;;;;;;;4844603;29;20060;-84
2022/01/17 15:09:31;;;;;;;0.80;0.80;;;;;;;;;;4829573;29;20041;-84
2022/01/17 15:11:57;;;;;;;0.10;0.10;;;;;;;;;;4829184;29;20049;-84
2022/01/17 15:14:23;;;;;;;0.85;0.55;;;;;;;;;;4844747;29;20053;-85
2022/01/17 15:16:49;;;;;;;0.10;0.10;;;;;;;;;;4844935;29;20049;-84
2022/01/17 15:19:15;;;;;;;0.45;0.45;;;;;;;;;;4829378;29;20057;-84